createdAt,value
2018-01-22T00:00:04.851Z,0
2018-01-22T00:05:03.310Z,0
2018-01-22T00:10:02.949Z,0
2018-01-22T00:15:02.577Z,0
2018-01-22T00:20:03.310Z,0
2018-01-22T00:25:02.901Z,0
2018-01-22T00:30:03.717Z,0
2018-01-22T00:35:03.252Z,0
2018-01-22T00:40:02.728Z,0
2018-01-22T00:45:03.163Z,0
2018-01-22T00:50:02.793Z,0
2018-01-22T00:55:03.348Z,0
2018-01-22T01:00:02.820Z,0
2018-01-22T01:05:03.074Z,0
2018-01-22T01:10:02.691Z,0
2018-01-22T01:15:03.394Z,0
2018-01-22T01:20:03.079Z,0
2018-01-22T01:25:02.485Z,0
2018-01-22T01:30:03.120Z,0
2018-01-22T01:35:02.555Z,0
2018-01-22T01:40:03.086Z,0
2018-01-22T01:45:02.573Z,0
2018-01-22T01:50:03.290Z,0
2018-01-22T01:55:02.948Z,0
2018-01-22T02:00:02.565Z,0
2018-01-22T02:05:03.189Z,0
2018-01-22T02:10:02.789Z,0
2018-01-22T02:15:03.615Z,0
2018-01-22T02:20:03.244Z,0
2018-01-22T02:25:02.847Z,0
2018-01-22T02:30:02.868Z,0
2018-01-22T02:35:02.457Z,0
2018-01-22T02:40:03.230Z,0
2018-01-22T02:45:02.792Z,0
2018-01-22T02:50:02.729Z,0
2018-01-22T02:55:03.337Z,0
2018-01-22T03:00:02.900Z,0
2018-01-22T03:05:02.526Z,0
2018-01-22T03:10:03.037Z,0
2018-01-22T03:15:02.702Z,0
2018-01-22T03:20:03.384Z,0
2018-01-22T03:25:03.026Z,0
2018-01-22T03:30:02.606Z,0
2018-01-22T03:35:03.258Z,0
2018-01-22T03:40:02.737Z,0
2018-01-22T03:45:03.252Z,0
2018-01-22T03:50:02.865Z,0
2018-01-22T03:55:03.406Z,0
2018-01-22T04:00:03.101Z,0
2018-01-22T04:05:02.734Z,0
2018-01-22T04:10:03.235Z,0
2018-01-22T04:15:02.678Z,0
2018-01-22T04:20:03.439Z,0
2018-01-22T04:25:02.836Z,0
2018-01-22T04:30:02.456Z,0
2018-01-22T04:35:02.929Z,0
2018-01-22T04:40:02.600Z,0
2018-01-22T04:45:03.092Z,0
2018-01-22T04:50:02.545Z,0
2018-01-22T04:55:03.165Z,0
2018-01-22T05:00:02.754Z,0
2018-01-22T05:05:03.259Z,0
2018-01-22T05:10:02.814Z,0
2018-01-22T05:15:02.769Z,0
2018-01-22T05:20:03.237Z,0
2018-01-22T05:25:02.862Z,0
2018-01-22T05:30:02.590Z,0
2018-01-22T05:35:03.123Z,0
2018-01-22T05:40:02.716Z,0
2018-01-22T05:45:03.230Z,0
2018-01-22T05:50:02.683Z,0
2018-01-22T05:55:03.301Z,0
2018-01-22T06:00:02.972Z,0
2018-01-22T06:05:02.519Z,0
2018-01-22T06:10:02.976Z,0
2018-01-22T06:15:02.614Z,0
2018-01-22T06:20:03.470Z,0
2018-01-22T06:25:03.400Z,0
2018-01-22T06:30:02.896Z,0
2018-01-22T06:35:02.542Z,0
2018-01-22T06:40:03.215Z,0
2018-01-22T06:45:02.646Z,0
2018-01-22T06:50:03.154Z,0
2018-01-22T06:55:02.817Z,0
2018-01-22T07:00:03.713Z,1
2018-01-22T07:05:03.413Z,2
2018-01-22T07:10:03.473Z,4
2018-01-22T07:15:02.893Z,11
2018-01-22T07:20:02.518Z,17
2018-01-22T07:25:03.439Z,23
2018-01-22T07:30:02.897Z,25
2018-01-22T07:35:02.560Z,35
2018-01-22T07:40:03.092Z,43
2018-01-22T07:45:02.789Z,42
2018-01-22T07:50:03.397Z,60
2018-01-22T07:55:02.870Z,97
2018-01-22T08:00:03.353Z,107
2018-01-22T08:05:02.882Z,261
2018-01-22T08:10:03.451Z,284
2018-01-22T08:15:02.894Z,416
2018-01-22T08:20:02.478Z,395
2018-01-22T08:25:03.149Z,284
2018-01-22T08:30:02.794Z,546
2018-01-22T08:35:02.485Z,562
2018-01-22T08:40:03.022Z,809
2018-01-22T08:45:02.683Z,833
2018-01-22T08:50:03.327Z,968
2018-01-22T08:55:02.881Z,859
2018-01-22T09:00:02.786Z,886
2018-01-22T09:05:03.641Z,859
2018-01-22T09:10:03.240Z,601
2018-01-22T09:15:02.636Z,995
2018-01-22T09:20:03.271Z,1000
2018-01-22T09:25:02.901Z,732
2018-01-22T09:30:03.433Z,832
2018-01-22T09:35:03.276Z,699
2018-01-22T09:40:02.732Z,660
2018-01-22T09:45:03.414Z,777
2018-01-22T09:50:02.952Z,913
2018-01-22T09:55:02.456Z,1000
2018-01-22T10:00:03.087Z,1000
2018-01-22T10:05:02.853Z,1000
2018-01-22T10:10:03.345Z,1000
2018-01-22T10:15:03.197Z,1000
2018-01-22T10:20:02.992Z,2000
2018-01-22T10:25:02.560Z,3000
2018-01-22T10:30:03.219Z,4000
2018-01-22T10:35:02.969Z,5000
2018-01-22T10:40:02.667Z,6000
2018-01-22T10:45:03.191Z,8000
2018-01-22T10:50:02.589Z,13000
2018-01-22T10:55:03.109Z,4000
2018-01-22T11:00:02.707Z,4000
2018-01-22T11:05:03.337Z,5000
2018-01-22T11:10:03.075Z,3000
2018-01-22T11:15:02.725Z,4000
2018-01-22T11:20:03.369Z,3000
2018-01-22T11:25:03.162Z,8000
2018-01-22T11:30:02.630Z,7000
2018-01-22T11:35:03.172Z,4000
2018-01-22T11:40:02.572Z,6000
2018-01-22T11:45:03.284Z,6000
2018-01-22T11:50:02.801Z,5000
2018-01-22T11:55:02.475Z,6000
2018-01-22T12:00:02.977Z,8000
2018-01-22T12:05:02.537Z,4000
2018-01-22T12:10:03.051Z,5000
2018-01-22T12:15:02.572Z,7000
2018-01-22T12:20:03.244Z,6000
2018-01-22T12:25:02.874Z,8000
2018-01-22T12:30:02.484Z,4000
2018-01-22T12:35:03.104Z,3000
2018-01-22T12:40:02.803Z,4000
2018-01-22T12:45:02.530Z,4000
2018-01-22T12:50:03.211Z,5000
2018-01-22T12:55:02.624Z,6000
2018-01-22T13:00:02.998Z,3000
2018-01-22T13:05:02.485Z,2000
2018-01-22T13:10:02.980Z,2000
2018-01-22T13:15:02.790Z,1000
2018-01-22T13:20:02.782Z,1000
2018-01-22T13:25:02.772Z,1000
2018-01-22T13:30:03.680Z,2000
2018-01-22T13:35:03.420Z,2000
2018-01-22T13:40:03.405Z,2000
2018-01-22T13:45:03.005Z,2000
2018-01-22T13:50:02.703Z,2000
2018-01-22T13:55:03.340Z,2000
2018-01-22T14:00:02.813Z,2000
2018-01-22T14:05:02.610Z,2000
2018-01-22T14:10:03.284Z,1000
2018-01-22T14:15:02.857Z,1000
2018-01-22T14:20:03.431Z,1000
2018-01-22T14:25:02.989Z,1000
2018-01-22T14:30:02.531Z,1000
2018-01-22T14:35:03.131Z,1000
2018-01-22T14:40:02.783Z,1000
2018-01-22T14:45:03.362Z,1000
2018-01-22T14:50:02.978Z,1000
2018-01-22T14:55:02.465Z,923
2018-01-22T15:00:03.029Z,1000
2018-01-22T15:05:02.600Z,867
2018-01-22T15:10:03.237Z,747
2018-01-22T15:15:02.736Z,594
2018-01-22T15:20:03.276Z,560
2018-01-22T15:25:02.727Z,472
2018-01-22T15:30:03.141Z,432
2018-01-22T15:35:02.626Z,250
2018-01-22T15:40:03.147Z,87
2018-01-22T15:45:03.020Z,76
2018-01-22T15:50:02.519Z,97
2018-01-22T15:55:03.135Z,56
2018-01-22T16:00:02.645Z,60
2018-01-22T16:05:03.180Z,44
2018-01-22T16:10:02.901Z,37
2018-01-22T16:15:03.363Z,28
2018-01-22T16:20:02.908Z,25
2018-01-22T16:25:02.556Z,10
2018-01-22T16:30:03.167Z,8
2018-01-22T16:35:02.672Z,3
2018-01-22T16:40:03.471Z,1
2018-01-22T16:45:03.010Z,1
2018-01-22T16:50:02.535Z,0
2018-01-22T16:55:03.041Z,0
2018-01-22T17:00:02.516Z,0
2018-01-22T17:05:03.064Z,0
2018-01-22T17:10:02.770Z,0
2018-01-22T17:15:03.331Z,0
2018-01-22T17:20:03.052Z,0
2018-01-22T17:25:02.479Z,0
2018-01-22T17:30:03.000Z,0
2018-01-22T17:35:02.950Z,0
2018-01-22T17:40:03.413Z,0
2018-01-22T17:45:02.909Z,0
2018-01-22T17:50:02.659Z,0
2018-01-22T17:55:03.344Z,0
2018-01-22T18:00:02.742Z,0
2018-01-22T18:05:02.623Z,0
2018-01-22T18:10:03.370Z,0
2018-01-22T18:15:03.171Z,0
2018-01-22T18:20:02.709Z,0
2018-01-22T18:25:03.649Z,0
2018-01-22T18:30:03.300Z,0
2018-01-22T18:35:03.229Z,0
2018-01-22T18:40:02.710Z,0
2018-01-22T18:45:03.326Z,0
2018-01-22T18:50:02.734Z,0
2018-01-22T18:55:03.351Z,0
2018-01-22T19:00:02.903Z,0
2018-01-22T19:05:02.458Z,0
2018-01-22T19:10:03.187Z,0
2018-01-22T19:15:02.842Z,0
2018-01-22T19:20:03.318Z,0
2018-01-22T19:25:02.747Z,0
2018-01-22T19:30:03.184Z,0
2018-01-22T19:35:02.936Z,0
2018-01-22T19:40:02.485Z,0
2018-01-22T19:45:03.082Z,0
2018-01-22T19:50:02.590Z,0
2018-01-22T19:55:03.054Z,0
2018-01-22T20:00:02.605Z,0
2018-01-22T20:05:03.392Z,0
2018-01-22T20:10:02.936Z,0
2018-01-22T20:15:02.834Z,0
2018-01-22T20:20:02.516Z,0
2018-01-22T20:25:03.069Z,0
2018-01-22T20:30:02.670Z,0
2018-01-22T20:35:03.286Z,0
2018-01-22T20:40:02.900Z,0
2018-01-22T20:45:02.473Z,0
2018-01-22T20:50:02.996Z,0
2018-01-22T20:55:02.526Z,0
2018-01-22T21:00:03.157Z,0
2018-01-22T21:05:02.770Z,0
2018-01-22T21:10:02.605Z,0
2018-01-22T21:15:03.078Z,0
2018-01-22T21:20:02.626Z,0
2018-01-22T21:25:03.252Z,0
2018-01-22T21:30:02.863Z,0
2018-01-22T21:35:03.447Z,0
2018-01-22T21:40:02.961Z,0
2018-01-22T21:45:02.581Z,0
2018-01-22T21:50:03.120Z,0
2018-01-22T21:55:02.535Z,0
2018-01-22T22:00:03.194Z,0
2018-01-22T22:05:02.726Z,0
2018-01-22T22:10:03.248Z,0
2018-01-22T22:15:02.779Z,0
2018-01-22T22:20:02.536Z,0
2018-01-22T22:25:02.979Z,0
2018-01-22T22:30:02.690Z,0
2018-01-22T22:35:03.219Z,0
2018-01-22T22:40:02.753Z,0
2018-01-22T22:45:03.307Z,0
2018-01-22T22:50:02.738Z,0
2018-01-22T22:55:03.215Z,0
2018-01-22T23:00:02.878Z,0
2018-01-22T23:05:02.541Z,0
2018-01-22T23:10:03.291Z,0
2018-01-22T23:15:02.740Z,0
2018-01-22T23:20:03.232Z,0
2018-01-22T23:25:02.467Z,0
2018-01-22T23:30:03.088Z,0
2018-01-22T23:35:02.742Z,0
2018-01-22T23:40:02.498Z,0
2018-01-22T23:45:02.959Z,0
2018-01-22T23:50:02.456Z,0
2018-01-22T23:55:03.005Z,0
